createdAt,value
2022-09-30T00:00:29.870Z,99056.84
2022-09-30T00:03:20.234Z,99055.38
2022-09-30T00:06:09.267Z,99055.56
2022-09-30T00:08:58.065Z,99062.81
2022-09-30T00:11:46.776Z,99062.16
2022-09-30T00:14:35.384Z,99063.16
2022-09-30T00:17:23.836Z,99058.28
2022-09-30T00:20:14.893Z,99056.78
2022-09-30T00:23:03.582Z,99051.06
2022-09-30T00:25:52.138Z,99050.66
2022-09-30T00:28:41.098Z,99051.03
2022-09-30T00:31:31.441Z,99053.75
2022-09-30T00:34:20.608Z,99048.59
2022-09-30T00:37:11.685Z,99046.03
2022-09-30T00:40:00.506Z,99051.84
2022-09-30T00:42:49.257Z,99060.16
2022-09-30T00:45:37.696Z,99057.31
2022-09-30T00:48:28.487Z,99068.22
2022-09-30T00:51:17.102Z,99056.97
2022-09-30T00:54:08.344Z,99055.22
2022-09-30T00:57:00.318Z,99047.59
2022-09-30T00:59:49.412Z,99046.66
2022-09-30T01:02:37.827Z,99045.91
2022-09-30T01:05:27.308Z,99051.25
2022-09-30T01:08:18.162Z,99046.09
2022-09-30T01:11:08.560Z,99052.00
2022-09-30T01:13:59.691Z,99057.91
2022-09-30T01:16:56.829Z,99062.13
2022-09-30T01:20:38.497Z,99062.94
2022-09-30T01:23:52.619Z,99065.25
2022-09-30T01:27:08.423Z,99073.59
2022-09-30T01:30:12.577Z,99076.81
2022-09-30T01:33:14.800Z,99074.97
2022-09-30T01:36:18.075Z,99075.72
2022-09-30T01:39:21.092Z,99075.63
2022-09-30T01:42:14.923Z,99075.06
2022-09-30T01:45:10.047Z,99073.66
2022-09-30T01:48:00.210Z,99074.09
2022-09-30T01:50:53.553Z,99079.44
2022-09-30T01:53:44.414Z,99079.78
2022-09-30T01:56:36.597Z,99079.78
2022-09-30T01:59:27.603Z,99083.09
2022-09-30T02:02:19.623Z,99089.75
2022-09-30T02:05:10.409Z,99094.16
2022-09-30T02:08:02.155Z,99100.47
2022-09-30T02:10:56.156Z,99101.03
2022-09-30T02:13:49.297Z,99102.34
2022-09-30T02:16:40.739Z,99092.94
2022-09-30T02:19:31.960Z,99096.53
2022-09-30T02:22:23.537Z,99092.13
2022-09-30T02:25:20.192Z,99101.59
2022-09-30T02:28:12.212Z,99101.03
2022-09-30T02:31:01.988Z,99110.78
2022-09-30T02:33:51.969Z,99103.22
2022-09-30T02:36:42.220Z,99116.03
2022-09-30T02:39:34.514Z,99099.72
2022-09-30T02:42:28.465Z,99101.63
2022-09-30T02:45:20.737Z,99113.53
2022-09-30T02:48:17.045Z,99111.88
2022-09-30T02:51:07.561Z,99102.38
2022-09-30T02:54:02.146Z,99105.78
2022-09-30T02:56:54.348Z,99103.22
2022-09-30T02:59:44.078Z,99106.72
2022-09-30T03:02:32.547Z,99106.72
2022-09-30T03:05:21.336Z,99111.69
2022-09-30T03:08:09.726Z,99104.88
2022-09-30T03:10:58.196Z,99113.75
2022-09-30T03:14:12.498Z,99117.81
2022-09-30T03:17:31.043Z,99121.72
2022-09-30T03:20:35.291Z,99115.31
2022-09-30T03:23:44.328Z,99124.41
2022-09-30T03:26:39.133Z,99127.56
2022-09-30T03:29:33.225Z,99134.13
2022-09-30T03:32:44.539Z,99134.88
2022-09-30T03:35:37.252Z,99135.06
2022-09-30T03:38:33.930Z,99130.41
2022-09-30T03:41:28.283Z,99135.00
2022-09-30T03:44:18.304Z,99139.69
2022-09-30T03:47:08.900Z,99133.97
2022-09-30T03:50:00.787Z,99142.22
2022-09-30T03:52:49.303Z,99134.75
2022-09-30T03:55:47.727Z,99136.75
2022-09-30T03:58:43.984Z,99131.03
2022-09-30T04:01:32.402Z,99137.50
2022-09-30T04:04:20.830Z,99141.44
2022-09-30T04:07:10.852Z,99147.66
2022-09-30T04:09:59.370Z,99145.34
2022-09-30T04:12:47.753Z,99148.16
2022-09-30T04:15:36.255Z,99155.25
2022-09-30T04:18:24.762Z,99149.19
2022-09-30T04:21:14.509Z,99148.03
2022-09-30T04:24:04.755Z,99161.41
2022-09-30T04:26:53.329Z,99158.66
2022-09-30T04:29:41.817Z,99172.97
2022-09-30T04:32:30.418Z,99167.72
2022-09-30T04:35:18.816Z,99165.97
2022-09-30T04:38:07.419Z,99174.69
2022-09-30T04:40:57.313Z,99185.19
2022-09-30T04:43:46.701Z,99187.09
2022-09-30T04:46:36.623Z,99190.84
2022-09-30T04:49:25.142Z,99207.47
2022-09-30T04:52:13.613Z,99212.84
2022-09-30T04:55:02.091Z,99208.75
2022-09-30T04:57:52.567Z,99201.28
2022-09-30T05:00:40.991Z,99208.41
2022-09-30T05:03:29.505Z,99209.81
2022-09-30T05:06:18.114Z,99210.97
2022-09-30T05:09:06.777Z,99216.50
2022-09-30T05:11:55.267Z,99214.34
2022-09-30T05:14:45.120Z,99222.31
2022-09-30T05:17:33.725Z,99222.53
2022-09-30T05:20:22.217Z,99221.72
2022-09-30T05:23:10.593Z,99223.59
2022-09-30T05:25:59.366Z,99229.16
2022-09-30T05:28:47.859Z,99231.28
2022-09-30T05:31:37.801Z,99240.06
2022-09-30T05:34:26.626Z,99242.81
2022-09-30T05:37:15.421Z,99243.69
2022-09-30T05:40:04.013Z,99261.94
2022-09-30T05:42:52.515Z,99261.28
2022-09-30T05:45:40.962Z,99269.13
2022-09-30T05:48:30.838Z,99272.63
2022-09-30T05:51:19.209Z,99283.00
2022-09-30T05:54:07.655Z,99280.41
2022-09-30T05:56:56.067Z,99288.06
2022-09-30T05:59:44.570Z,99301.00
2022-09-30T06:02:33.540Z,99309.44
2022-09-30T06:05:03.186Z,99309.28
2022-09-30T06:07:31.360Z,99324.44
2022-09-30T06:09:59.484Z,99322.28
2022-09-30T06:12:28.836Z,99327.97
2022-09-30T06:14:57.263Z,99329.50
2022-09-30T06:17:25.435Z,99318.84
2022-09-30T06:19:53.665Z,99319.53
2022-09-30T06:22:23.184Z,99323.19
2022-09-30T06:24:54.966Z,99316.66
2022-09-30T06:27:25.055Z,99309.00
2022-09-30T06:29:53.316Z,99304.16
2022-09-30T06:32:21.449Z,99304.03
2022-09-30T06:34:49.664Z,99308.44
2022-09-30T06:37:18.543Z,99311.16
2022-09-30T06:39:48.065Z,99308.75
2022-09-30T06:42:16.256Z,99314.78
2022-09-30T06:44:52.732Z,99319.88
2022-09-30T06:47:25.439Z,99323.91
2022-09-30T06:49:58.466Z,99331.84
2022-09-30T06:52:27.328Z,99346.38
2022-09-30T06:54:57.424Z,99350.84
2022-09-30T06:57:27.703Z,99356.59
2022-09-30T06:59:56.184Z,99356.53
2022-09-30T07:02:24.376Z,99355.47
2022-09-30T07:04:52.622Z,99353.03
2022-09-30T07:07:22.222Z,99352.28
2022-09-30T07:09:50.412Z,99363.59
2022-09-30T07:12:19.992Z,99354.88
2022-09-30T07:14:48.267Z,99358.84
2022-09-30T07:17:16.391Z,99357.69
2022-09-30T07:19:44.649Z,99362.28
2022-09-30T07:22:26.844Z,99357.03
2022-09-30T07:24:55.169Z,99359.38
2022-09-30T07:27:24.753Z,99348.84
2022-09-30T07:30:12.541Z,99357.59
2022-09-30T07:32:41.257Z,99367.94
2022-09-30T07:35:09.912Z,99379.78
2022-09-30T07:37:38.097Z,99383.38
2022-09-30T07:40:07.945Z,99384.84
2022-09-30T07:42:41.642Z,99392.66
2022-09-30T07:45:11.079Z,99400.88
2022-09-30T07:47:39.260Z,99412.63
2022-09-30T07:50:10.277Z,99407.19
2022-09-30T07:52:38.434Z,99412.13
2022-09-30T07:55:07.256Z,99415.53
2022-09-30T07:57:35.824Z,99412.88
2022-09-30T08:00:29.805Z,99417.56
2022-09-30T08:02:55.552Z,99429.91
2022-09-30T08:05:23.823Z,99428.50
2022-09-30T08:07:51.973Z,99408.13
2022-09-30T08:12:54.646Z,99414.50
2022-09-30T08:15:27.426Z,99421.00
2022-09-30T08:17:55.584Z,99427.34
2022-09-30T08:20:23.969Z,99426.84
2022-09-30T08:22:55.556Z,99427.53
2022-09-30T08:25:24.132Z,99434.84
2022-09-30T08:27:52.526Z,99432.69
2022-09-30T08:30:20.950Z,99430.66
2022-09-30T08:32:50.676Z,99430.03
2022-09-30T08:35:18.883Z,99428.34
2022-09-30T08:37:47.059Z,99436.38
2022-09-30T08:40:20.975Z,99424.13
2022-09-30T08:43:17.993Z,99428.94
2022-09-30T08:45:53.426Z,99439.44
2022-09-30T08:48:43.284Z,99449.03
2022-09-30T08:51:29.063Z,99456.91
2022-09-30T08:53:58.431Z,99448.50
2022-09-30T08:56:28.423Z,99439.94
2022-09-30T08:58:59.226Z,99443.53
2022-09-30T09:01:31.981Z,99434.47
2022-09-30T09:04:02.412Z,99435.94
2022-09-30T09:06:34.316Z,99440.94
2022-09-30T09:09:23.728Z,99435.78
2022-09-30T09:12:06.968Z,99429.84
2022-09-30T09:14:41.883Z,99427.56
2022-09-30T09:17:20.396Z,99424.94
2022-09-30T09:19:59.781Z,99433.06
2022-09-30T09:22:28.301Z,99436.78
2022-09-30T09:24:56.478Z,99441.25
2022-09-30T09:27:31.771Z,99437.59
2022-09-30T09:30:07.503Z,99428.38
2022-09-30T09:32:36.061Z,99433.78
2022-09-30T09:35:15.051Z,99429.19
2022-09-30T09:38:08.493Z,99416.91
2022-09-30T09:40:42.760Z,99415.34
2022-09-30T09:43:18.780Z,99417.19
2022-09-30T09:45:52.636Z,99421.66
2022-09-30T09:48:20.893Z,99423.22
2022-09-30T09:50:58.930Z,99427.66
2022-09-30T09:53:45.187Z,99423.06
2022-09-30T09:56:19.976Z,99434.13
2022-09-30T09:59:09.386Z,99434.63
2022-09-30T10:01:39.678Z,99436.25
2022-09-30T10:04:17.838Z,99435.56
2022-09-30T10:06:54.046Z,99433.31
2022-09-30T10:09:31.288Z,99440.63
2022-09-30T10:12:28.365Z,99438.19
2022-09-30T10:15:03.167Z,99432.25
2022-09-30T10:17:32.992Z,99425.28
2022-09-30T10:20:07.022Z,99430.63
2022-09-30T10:22:37.107Z,99430.53
2022-09-30T10:25:24.176Z,99432.69
2022-09-30T10:27:55.891Z,99433.31
2022-09-30T10:30:41.292Z,99421.84
2022-09-30T10:33:25.785Z,99426.50
2022-09-30T10:35:58.026Z,99421.66
2022-09-30T10:38:29.349Z,99422.25
2022-09-30T10:40:57.623Z,99428.16
2022-09-30T10:43:29.049Z,99432.84
2022-09-30T10:46:21.317Z,99420.75
2022-09-30T10:48:47.690Z,99420.28
2022-09-30T10:51:24.726Z,99421.09
2022-09-30T10:53:54.509Z,99420.31
2022-09-30T10:56:44.616Z,99416.56
2022-09-30T10:59:27.429Z,99413.56
2022-09-30T11:01:58.618Z,99408.44
2022-09-30T11:04:30.821Z,99404.06
2022-09-30T11:07:04.583Z,99404.66
2022-09-30T11:09:39.329Z,99398.31
2022-09-30T11:12:14.476Z,99401.69
2022-09-30T11:14:47.074Z,99398.91
2022-09-30T11:17:26.881Z,99405.50
2022-09-30T11:20:01.770Z,99405.78
2022-09-30T11:22:35.511Z,99406.06
2022-09-30T11:25:10.933Z,99406.06
2022-09-30T11:28:03.663Z,99412.13
2022-09-30T11:30:34.363Z,99412.66
2022-09-30T11:33:25.365Z,99404.63
2022-09-30T11:35:57.524Z,99402.09
2022-09-30T11:38:47.775Z,99399.81
2022-09-30T11:41:20.855Z,99400.19
2022-09-30T11:43:57.234Z,99402.13
2022-09-30T11:46:48.458Z,99404.94
2022-09-30T11:49:33.844Z,99398.41
2022-09-30T11:52:07.862Z,99402.56
2022-09-30T11:54:48.593Z,99410.53
2022-09-30T11:57:22.102Z,99410.78
2022-09-30T11:59:53.931Z,99409.91
2022-09-30T12:02:31.801Z,99406.75
2022-09-30T12:05:02.365Z,99406.69
2022-09-30T12:07:39.193Z,99403.50
2022-09-30T12:10:16.989Z,99409.28
2022-09-30T12:12:46.706Z,99405.03
2022-09-30T12:15:17.427Z,99409.63
2022-09-30T12:17:47.859Z,99424.50
2022-09-30T12:20:19.208Z,99405.53
2022-09-30T12:22:47.697Z,99403.13
2022-09-30T12:25:19.740Z,99414.09
2022-09-30T12:27:51.499Z,99417.78
2022-09-30T12:30:21.026Z,99416.34
2022-09-30T12:33:33.044Z,99421.38
2022-09-30T12:36:37.832Z,99428.00
2022-09-30T12:39:51.346Z,99416.81
2022-09-30T12:42:52.769Z,99421.63
2022-09-30T12:46:07.203Z,99420.78
2022-09-30T12:48:39.040Z,99420.19
2022-09-30T12:51:07.169Z,99411.09
2022-09-30T12:53:37.154Z,99408.31
2022-09-30T12:56:07.088Z,99412.34
2022-09-30T12:58:38.385Z,99414.25
2022-09-30T13:01:08.696Z,99411.63
2022-09-30T13:04:17.912Z,99413.63
2022-09-30T13:07:18.879Z,99415.84
2022-09-30T13:10:18.681Z,99411.66
2022-09-30T13:12:47.657Z,99420.91
2022-09-30T13:15:45.257Z,99416.44
2022-09-30T13:18:59.202Z,99421.00
2022-09-30T13:21:27.317Z,99419.94
2022-09-30T13:23:56.482Z,99428.06
2022-09-30T13:26:39.075Z,99428.91
2022-09-30T13:29:39.859Z,99437.38
2022-09-30T13:32:10.536Z,99436.22
2022-09-30T13:34:57.221Z,99438.00
2022-09-30T13:37:41.085Z,99445.38
2022-09-30T13:40:23.158Z,99435.59
2022-09-30T13:43:04.497Z,99432.22
2022-09-30T13:45:36.848Z,99421.03
2022-09-30T13:48:12.176Z,99420.78
2022-09-30T13:50:47.442Z,99428.09
2022-09-30T13:53:22.440Z,99421.91
2022-09-30T13:55:53.672Z,99429.78
2022-09-30T13:59:09.775Z,99431.41
2022-09-30T14:01:53.607Z,99420.53
2022-09-30T14:04:47.647Z,99424.84
2022-09-30T14:07:20.905Z,99421.53
2022-09-30T14:10:09.092Z,99415.69
2022-09-30T14:12:53.610Z,99421.66
2022-09-30T14:16:06.753Z,99410.03
2022-09-30T14:19:07.089Z,99419.00
2022-09-30T14:21:38.539Z,99418.31
2022-09-30T14:24:12.856Z,99412.94
2022-09-30T14:27:11.074Z,99414.03
2022-09-30T14:29:46.109Z,99408.78
2022-09-30T14:32:15.161Z,99411.81
2022-09-30T14:34:43.317Z,99407.97
2022-09-30T14:37:18.770Z,99403.84
2022-09-30T14:39:48.143Z,99398.59
2022-09-30T14:42:28.085Z,99413.75
2022-09-30T14:45:02.108Z,99410.03
2022-09-30T14:47:32.009Z,99410.47
2022-09-30T14:50:01.030Z,99402.75
2022-09-30T14:52:39.449Z,99405.09
2022-09-30T14:55:26.914Z,99411.44
2022-09-30T14:57:56.108Z,99415.97
2022-09-30T15:00:31.077Z,99419.00
2022-09-30T15:03:00.393Z,99416.66
2022-09-30T15:05:28.640Z,99410.72
2022-09-30T15:07:58.201Z,99415.97
2022-09-30T15:10:26.648Z,99416.78
2022-09-30T15:12:56.045Z,99414.88
2022-09-30T15:15:28.445Z,99413.22
2022-09-30T15:17:56.891Z,99420.38
2022-09-30T15:20:29.283Z,99405.75
2022-09-30T15:23:03.200Z,99413.25
2022-09-30T15:25:31.630Z,99398.75
2022-09-30T15:27:59.941Z,99402.59
2022-09-30T15:30:29.493Z,99392.53
2022-09-30T15:33:02.077Z,99407.41
2022-09-30T15:35:30.249Z,99406.59
2022-09-30T15:38:09.240Z,99415.41
2022-09-30T15:40:50.482Z,99406.16
2022-09-30T15:43:33.356Z,99406.84
2022-09-30T15:46:18.320Z,99398.31
2022-09-30T15:48:46.878Z,99399.41
2022-09-30T15:51:26.873Z,99396.13
2022-09-30T15:53:58.020Z,99394.16
2022-09-30T15:56:28.214Z,99389.91
2022-09-30T15:58:56.899Z,99398.06
2022-09-30T16:01:26.689Z,99395.56
2022-09-30T16:03:56.668Z,99390.31
2022-09-30T16:06:28.187Z,99389.22
2022-09-30T16:09:01.286Z,99385.88
2022-09-30T16:11:32.259Z,99388.91
2022-09-30T16:14:00.384Z,99392.22
2022-09-30T16:16:31.402Z,99388.50
2022-09-30T16:19:00.134Z,99391.88
2022-09-30T16:21:50.477Z,99400.09
2022-09-30T16:24:47.899Z,99403.69
2022-09-30T16:27:32.714Z,99397.91
2022-09-30T16:30:02.225Z,99403.25
2022-09-30T16:32:33.833Z,99407.19
2022-09-30T16:35:01.975Z,99404.81
2022-09-30T16:37:30.185Z,99411.16
2022-09-30T16:40:01.693Z,99410.16
2022-09-30T16:42:32.999Z,99409.13
2022-09-30T16:45:01.922Z,99417.63
2022-09-30T16:47:30.092Z,99418.78
2022-09-30T16:49:58.858Z,99414.81
2022-09-30T16:52:26.990Z,99424.75
2022-09-30T16:54:55.140Z,99424.81
2022-09-30T16:57:24.634Z,99428.50
2022-09-30T16:59:52.711Z,99431.66
2022-09-30T17:02:21.789Z,99432.94
2022-09-30T17:04:49.992Z,99442.91
2022-09-30T17:07:18.238Z,99441.38
2022-09-30T17:09:46.595Z,99439.81
2022-09-30T17:12:14.880Z,99440.84
2022-09-30T17:14:44.597Z,99443.50
2022-09-30T17:17:13.956Z,99453.03
2022-09-30T17:19:42.646Z,99455.69
2022-09-30T17:22:10.809Z,99465.22
2022-09-30T17:24:39.278Z,99456.59
2022-09-30T17:27:07.827Z,99470.44
2022-09-30T17:29:41.827Z,99465.19
2022-09-30T17:32:12.105Z,99469.59
2022-09-30T17:34:41.226Z,99469.44
2022-09-30T17:37:09.457Z,99472.66
2022-09-30T17:39:37.529Z,99469.06
2022-09-30T17:42:23.524Z,99465.44
2022-09-30T17:44:52.260Z,99479.22
2022-09-30T17:47:22.393Z,99476.41
2022-09-30T17:49:50.671Z,99478.63
2022-09-30T17:52:18.809Z,99489.44
2022-09-30T17:54:52.007Z,99486.63
2022-09-30T17:57:20.911Z,99489.00
2022-09-30T17:59:48.995Z,99493.84
2022-09-30T18:02:18.154Z,99496.81
2022-09-30T18:04:47.903Z,99494.66
2022-09-30T18:07:16.184Z,99488.97
2022-09-30T18:09:44.415Z,99504.94
2022-09-30T18:12:12.715Z,99506.09
2022-09-30T18:14:40.912Z,99504.59
2022-09-30T18:17:09.084Z,99514.38
2022-09-30T18:19:37.280Z,99521.38
2022-09-30T18:22:06.748Z,99518.22
2022-09-30T18:24:52.621Z,99518.41
2022-09-30T18:27:22.688Z,99523.06
2022-09-30T18:29:51.025Z,99521.47
2022-09-30T18:32:19.450Z,99529.56
2022-09-30T18:34:47.584Z,99535.03
2022-09-30T18:37:17.235Z,99534.44
2022-09-30T18:39:45.334Z,99535.66
2022-09-30T18:42:13.580Z,99539.41
2022-09-30T18:44:41.693Z,99532.81
2022-09-30T18:47:10.033Z,99544.31
2022-09-30T18:49:38.146Z,99542.03
2022-09-30T18:52:06.208Z,99540.63
2022-09-30T18:54:36.004Z,99537.44
2022-09-30T18:57:04.158Z,99541.06
2022-09-30T18:59:32.696Z,99534.44
2022-09-30T19:02:02.983Z,99530.16
2022-09-30T19:04:31.603Z,99526.06
2022-09-30T19:06:59.786Z,99518.31
2022-09-30T19:09:28.688Z,99519.41
2022-09-30T19:12:00.028Z,99520.38
2022-09-30T19:14:30.701Z,99502.66
2022-09-30T19:16:58.918Z,99514.63
2022-09-30T19:19:27.139Z,99508.66
2022-09-30T19:22:00.194Z,99507.81
2022-09-30T19:24:28.422Z,99514.69
2022-09-30T19:26:58.189Z,99515.63
2022-09-30T19:29:26.862Z,99506.13
2022-09-30T19:31:57.505Z,99509.63
2022-09-30T19:34:32.074Z,99526.78
2022-09-30T19:37:01.080Z,99517.28
2022-09-30T19:39:40.410Z,99524.13
2022-09-30T19:42:14.270Z,99530.19
2022-09-30T19:44:42.895Z,99525.94
2022-09-30T19:47:11.109Z,99521.56
2022-09-30T19:49:39.391Z,99516.31
2022-09-30T19:52:16.950Z,99515.56
2022-09-30T19:54:47.081Z,99508.78
2022-09-30T19:57:16.806Z,99521.78
2022-09-30T19:59:45.041Z,99522.59
2022-09-30T20:02:13.249Z,99526.84
2022-09-30T20:05:00.558Z,99515.56
2022-09-30T20:07:51.067Z,99511.06
2022-09-30T20:10:39.744Z,99517.91
2022-09-30T20:13:29.990Z,99516.09
2022-09-30T20:16:17.540Z,99517.81
2022-09-30T20:19:06.164Z,99525.53
2022-09-30T20:21:54.926Z,99528.00
2022-09-30T20:24:43.287Z,99536.50
2022-09-30T20:27:32.979Z,99527.75
2022-09-30T20:30:22.855Z,99529.34
2022-09-30T20:33:11.314Z,99535.25
2022-09-30T20:36:01.076Z,99529.91
2022-09-30T20:38:51.307Z,99527.28
2022-09-30T20:41:40.500Z,99519.53
2022-09-30T20:44:28.887Z,99527.28
2022-09-30T20:47:19.332Z,99527.09
2022-09-30T20:50:08.774Z,99533.94
2022-09-30T20:52:57.323Z,99526.34
2022-09-30T20:55:45.858Z,99537.44
2022-09-30T20:58:34.355Z,99536.59
2022-09-30T21:01:23.975Z,99547.75
2022-09-30T21:04:13.930Z,99545.28
2022-09-30T21:07:02.422Z,99556.25
2022-09-30T21:09:51.481Z,99560.34
2022-09-30T21:12:40.024Z,99573.09
2022-09-30T21:15:28.997Z,99573.78
2022-09-30T21:18:17.485Z,99581.47
2022-09-30T21:21:07.684Z,99582.38
2022-09-30T21:23:57.487Z,99565.34
2022-09-30T21:26:46.050Z,99577.13
2022-09-30T21:29:34.478Z,99569.63
2022-09-30T21:32:22.888Z,99569.44
2022-09-30T21:35:12.778Z,99567.72
2022-09-30T21:38:02.588Z,99569.44
2022-09-30T21:40:51.420Z,99566.09
2022-09-30T21:43:39.951Z,99550.63
2022-09-30T21:46:29.480Z,99543.50
2022-09-30T21:49:19.936Z,99541.50
2022-09-30T21:52:10.445Z,99538.59
2022-09-30T21:55:00.188Z,99532.34
2022-09-30T21:57:48.594Z,99537.16
2022-09-30T22:00:37.068Z,99540.03
2022-09-30T22:03:25.614Z,99528.38
2022-09-30T22:06:14.380Z,99527.97
2022-09-30T22:09:02.868Z,99526.03
2022-09-30T22:11:52.891Z,99524.22
2022-09-30T22:14:41.342Z,99528.38
2022-09-30T22:17:29.787Z,99512.88
2022-09-30T22:20:19.530Z,99520.81
2022-09-30T22:23:08.037Z,99530.97
2022-09-30T22:25:57.420Z,99526.41
2022-09-30T22:28:47.639Z,99527.16
2022-09-30T22:31:36.389Z,99524.38
2022-09-30T22:34:42.891Z,99523.72
2022-09-30T22:37:48.898Z,99518.03
2022-09-30T22:40:37.402Z,99519.03
2022-09-30T22:43:25.913Z,99520.88
2022-09-30T22:46:15.742Z,99516.91
2022-09-30T22:49:04.377Z,99518.88
2022-09-30T22:51:52.840Z,99521.97
2022-09-30T22:54:41.258Z,99527.44
2022-09-30T22:57:30.915Z,99526.84
2022-09-30T23:00:19.427Z,99516.94
2022-09-30T23:03:10.110Z,99517.16
2022-09-30T23:06:01.393Z,99519.00
2022-09-30T23:08:50.338Z,99526.56
2022-09-30T23:11:39.184Z,99523.66
2022-09-30T23:14:27.992Z,99518.19
2022-09-30T23:17:16.332Z,99520.34
2022-09-30T23:20:08.528Z,99516.47
2022-09-30T23:22:57.064Z,99517.78
2022-09-30T23:25:45.589Z,99514.06
2022-09-30T23:28:34.085Z,99516.47
2022-09-30T23:31:22.535Z,99513.47
2022-09-30T23:34:11.012Z,99514.88
2022-09-30T23:37:00.831Z,99509.38
2022-09-30T23:39:49.365Z,99513.53
2022-09-30T23:42:37.842Z,99518.44
2022-09-30T23:45:26.226Z,99517.53
2022-09-30T23:48:14.659Z,99510.53
2022-09-30T23:51:04.355Z,99511.25
2022-09-30T23:53:54.309Z,99511.16
2022-09-30T23:56:42.752Z,99494.81
2022-09-30T23:59:31.344Z,99492.31
